sensor_id;sensor_type;location;lat;lon;timestamp;P1;P2;P0
70436;PMS5003;57877;39.750;-104.894;2023-06-22T00:00:03;7;7;
70436;PMS5003;57877;39.750;-104.894;2023-06-22T00:02:28;4;4;
70436;PMS5003;57877;39.750;-104.894;2023-06-22T00:04:53;6;6;
70436;PMS5003;57877;39.750;-104.894;2023-06-22T00:07:18;7;7;
70436;PMS5003;57877;39.750;-104.894;2023-06-22T00:09:43;5;5;
70436;PMS5003;57877;39.750;-104.894;2023-06-22T00:12:08;6;5;
70436;PMS5003;57877;39.750;-104.894;2023-06-22T00:14:33;5;5;
70436;PMS5003;57877;39.750;-104.894;2023-06-22T00:16:58;5;5;
70436;PMS5003;57877;39.750;-104.894;2023-06-22T00:19:24;6;5;
70436;PMS5003;57877;39.750;-104.894;2023-06-22T00:21:49;6;6;
70436;PMS5003;57877;39.750;-104.894;2023-06-22T00:24:14;4;4;
70436;PMS5003;57877;39.750;-104.894;2023-06-22T00:26:39;5;5;
70436;PMS5003;57877;39.750;-104.894;2023-06-22T00:29:04;3;3;
70436;PMS5003;57877;39.750;-104.894;2023-06-22T00:31:29;5;5;
70436;PMS5003;57877;39.750;-104.894;2023-06-22T00:33:54;7;7;
70436;PMS5003;57877;39.750;-104.894;2023-06-22T00:36:19;7;7;
70436;PMS5003;57877;39.750;-104.894;2023-06-22T00:38:44;4;4;
70436;PMS5003;57877;39.750;-104.894;2023-06-22T00:41:09;7;7;
70436;PMS5003;57877;39.750;-104.894;2023-06-22T00:43:34;5;5;
70436;PMS5003;57877;39.750;-104.894;2023-06-22T00:45:59;6;6;
70436;PMS5003;57877;39.750;-104.894;2023-06-22T00:48:24;6;5;
70436;PMS5003;57877;39.750;-104.894;2023-06-22T00:50:50;6;5;
70436;PMS5003;57877;39.750;-104.894;2023-06-22T00:53:14;5;5;
70436;PMS5003;57877;39.750;-104.894;2023-06-22T00:55:41;4;4;
70436;PMS5003;57877;39.750;-104.894;2023-06-22T00:58:05;6;6;
70436;PMS5003;57877;39.750;-104.894;2023-06-22T01:00:30;6;5;
70436;PMS5003;57877;39.750;-104.894;2023-06-22T01:02:55;6;6;
70436;PMS5003;57877;39.750;-104.894;2023-06-22T01:05:20;6;6;
70436;PMS5003;57877;39.750;-104.894;2023-06-22T01:07:49;5;5;
70436;PMS5003;57877;39.750;-104.894;2023-06-22T01:10:13;6;6;
70436;PMS5003;57877;39.750;-104.894;2023-06-22T01:12:37;8;7;
70436;PMS5003;57877;39.750;-104.894;2023-06-22T01:15:02;5;5;
70436;PMS5003;57877;39.750;-104.894;2023-06-22T01:17:25;7;6;
70436;PMS5003;57877;39.750;-104.894;2023-06-22T01:19:51;9;8;
70436;PMS5003;57877;39.750;-104.894;2023-06-22T01:22:16;10;10;
70436;PMS5003;57877;39.750;-104.894;2023-06-22T01:24:41;8;8;
70436;PMS5003;57877;39.750;-104.894;2023-06-22T01:27:09;6;5;
70436;PMS5003;57877;39.750;-104.894;2023-06-22T01:29:30;6;6;
70436;PMS5003;57877;39.750;-104.894;2023-06-22T01:31:56;5;4;
70436;PMS5003;57877;39.750;-104.894;2023-06-22T01:34:21;5;5;
70436;PMS5003;57877;39.750;-104.894;2023-06-22T01:36:46;5;5;
70436;PMS5003;57877;39.750;-104.894;2023-06-22T01:39:11;3;3;
70436;PMS5003;57877;39.750;-104.894;2023-06-22T01:41:37;3;3;
70436;PMS5003;57877;39.750;-104.894;2023-06-22T01:44:01;3;3;
70436;PMS5003;57877;39.750;-104.894;2023-06-22T01:46:26;6;6;
70436;PMS5003;57877;39.750;-104.894;2023-06-22T01:48:51;5;5;
70436;PMS5003;57877;39.750;-104.894;2023-06-22T01:51:16;4;4;
70436;PMS5003;57877;39.750;-104.894;2023-06-22T01:53:41;5;5;
70436;PMS5003;57877;39.750;-104.894;2023-06-22T01:56:06;4;4;
70436;PMS5003;57877;39.750;-104.894;2023-06-22T01:58:31;5;5;
70436;PMS5003;57877;39.750;-104.894;2023-06-22T02:00:56;7;6;
70436;PMS5003;57877;39.750;-104.894;2023-06-22T02:03:22;6;6;
70436;PMS5003;57877;39.750;-104.894;2023-06-22T02:05:47;7;7;
70436;PMS5003;57877;39.750;-104.894;2023-06-22T02:08:11;6;6;
70436;PMS5003;57877;39.750;-104.894;2023-06-22T02:10:36;6;4;
70436;PMS5003;57877;39.750;-104.894;2023-06-22T02:13:01;4;4;
70436;PMS5003;57877;39.750;-104.894;2023-06-22T02:15:26;4;3;
70436;PMS5003;57877;39.750;-104.894;2023-06-22T02:17:52;5;5;
70436;PMS5003;57877;39.750;-104.894;2023-06-22T02:20:18;5;5;
70436;PMS5003;57877;39.750;-104.894;2023-06-22T02:22:43;4;3;
70436;PMS5003;57877;39.750;-104.894;2023-06-22T02:25:08;5;5;
70436;PMS5003;57877;39.750;-104.894;2023-06-22T02:27:33;4;4;
70436;PMS5003;57877;39.750;-104.894;2023-06-22T02:30:00;5;5;
70436;PMS5003;57877;39.750;-104.894;2023-06-22T02:32:24;1;1;
70436;PMS5003;57877;39.750;-104.894;2023-06-22T02:34:50;2;2;
70436;PMS5003;57877;39.750;-104.894;2023-06-22T02:37:16;2;2;
70436;PMS5003;57877;39.750;-104.894;2023-06-22T02:39:42;1;1;
70436;PMS5003;57877;39.750;-104.894;2023-06-22T02:42:07;2;2;
70436;PMS5003;57877;39.750;-104.894;2023-06-22T02:44:32;0;0;
70436;PMS5003;57877;39.750;-104.894;2023-06-22T02:46:56;1;1;
70436;PMS5003;57877;39.750;-104.894;2023-06-22T02:49:22;4;4;
70436;PMS5003;57877;39.750;-104.894;2023-06-22T02:51:47;3;2;
70436;PMS5003;57877;39.750;-104.894;2023-06-22T02:54:11;3;2;
70436;PMS5003;57877;39.750;-104.894;2023-06-22T02:56:36;5;5;
70436;PMS5003;57877;39.750;-104.894;2023-06-22T02:59:01;10;9;
70436;PMS5003;57877;39.750;-104.894;2023-06-22T03:01:27;15;13;
70436;PMS5003;57877;39.750;-104.894;2023-06-22T03:03:53;6;6;
70436;PMS5003;57877;39.750;-104.894;2023-06-22T03:06:19;6;5;
70436;PMS5003;57877;39.750;-104.894;2023-06-22T03:08:44;7;7;
70436;PMS5003;57877;39.750;-104.894;2023-06-22T03:11:09;4;4;
70436;PMS5003;57877;39.750;-104.894;2023-06-22T03:13:35;5;5;
70436;PMS5003;57877;39.750;-104.894;2023-06-22T03:16:01;3;3;
70436;PMS5003;57877;39.750;-104.894;2023-06-22T03:18:26;2;2;
70436;PMS5003;57877;39.750;-104.894;2023-06-22T03:20:51;4;4;
70436;PMS5003;57877;39.750;-104.894;2023-06-22T03:23:18;3;3;
70436;PMS5003;57877;39.750;-104.894;2023-06-22T03:25:43;2;2;
70436;PMS5003;57877;39.750;-104.894;2023-06-22T03:28:10;2;2;
70436;PMS5003;57877;39.750;-104.894;2023-06-22T03:30:35;3;3;
70436;PMS5003;57877;39.750;-104.894;2023-06-22T03:32:59;4;4;
70436;PMS5003;57877;39.750;-104.894;2023-06-22T03:35:25;4;4;
70436;PMS5003;57877;39.750;-104.894;2023-06-22T03:37:50;7;5;
70436;PMS5003;57877;39.750;-104.894;2023-06-22T03:40:15;6;5;
70436;PMS5003;57877;39.750;-104.894;2023-06-22T03:42:40;3;3;
70436;PMS5003;57877;39.750;-104.894;2023-06-22T03:45:06;5;5;
70436;PMS5003;57877;39.750;-104.894;2023-06-22T03:47:32;8;7;
70436;PMS5003;57877;39.750;-104.894;2023-06-22T03:49:57;4;3;
70436;PMS5003;57877;39.750;-104.894;2023-06-22T03:52:22;3;3;
70436;PMS5003;57877;39.750;-104.894;2023-06-22T03:54:47;3;3;
70436;PMS5003;57877;39.750;-104.894;2023-06-22T03:57:12;3;2;
70436;PMS5003;57877;39.750;-104.894;2023-06-22T03:59:37;3;3;
70436;PMS5003;57877;39.750;-104.894;2023-06-22T04:02:02;3;3;
70436;PMS5003;57877;39.750;-104.894;2023-06-22T04:04:27;6;6;
70436;PMS5003;57877;39.750;-104.894;2023-06-22T04:06:52;3;2;
70436;PMS5003;57877;39.750;-104.894;2023-06-22T04:09:17;3;3;
70436;PMS5003;57877;39.750;-104.894;2023-06-22T04:11:42;5;5;
70436;PMS5003;57877;39.750;-104.894;2023-06-22T04:14:07;4;4;
70436;PMS5003;57877;39.750;-104.894;2023-06-22T04:16:33;4;4;
70436;PMS5003;57877;39.750;-104.894;2023-06-22T04:18:58;4;4;
70436;PMS5003;57877;39.750;-104.894;2023-06-22T04:21:23;5;5;
70436;PMS5003;57877;39.750;-104.894;2023-06-22T04:23:48;3;3;
70436;PMS5003;57877;39.750;-104.894;2023-06-22T04:26:13;3;3;
70436;PMS5003;57877;39.750;-104.894;2023-06-22T04:28:39;3;3;
70436;PMS5003;57877;39.750;-104.894;2023-06-22T04:31:05;5;4;
70436;PMS5003;57877;39.750;-104.894;2023-06-22T04:33:31;1;1;
70436;PMS5003;57877;39.750;-104.894;2023-06-22T04:35:57;3;3;
70436;PMS5003;57877;39.750;-104.894;2023-06-22T04:38:23;2;2;
70436;PMS5003;57877;39.750;-104.894;2023-06-22T04:40:49;4;4;
70436;PMS5003;57877;39.750;-104.894;2023-06-22T04:43:15;4;4;
70436;PMS5003;57877;39.750;-104.894;2023-06-22T04:45:41;9;8;
70436;PMS5003;57877;39.750;-104.894;2023-06-22T04:48:07;17;16;
70436;PMS5003;57877;39.750;-104.894;2023-06-22T04:50:33;9;7;
70436;PMS5003;57877;39.750;-104.894;2023-06-22T04:52:59;7;7;
70436;PMS5003;57877;39.750;-104.894;2023-06-22T04:55:25;5;5;
70436;PMS5003;57877;39.750;-104.894;2023-06-22T04:57:51;3;3;
70436;PMS5003;57877;39.750;-104.894;2023-06-22T05:00:17;3;2;
70436;PMS5003;57877;39.750;-104.894;2023-06-22T05:02:43;4;4;
70436;PMS5003;57877;39.750;-104.894;2023-06-22T05:05:09;3;3;
70436;PMS5003;57877;39.750;-104.894;2023-06-22T05:07:34;4;4;
70436;PMS5003;57877;39.750;-104.894;2023-06-22T05:09:58;2;2;
70436;PMS5003;57877;39.750;-104.894;2023-06-22T05:12:24;2;2;
70436;PMS5003;57877;39.750;-104.894;2023-06-22T05:14:51;4;4;
70436;PMS5003;57877;39.750;-104.894;2023-06-22T05:17:17;2;2;
70436;PMS5003;57877;39.750;-104.894;2023-06-22T05:19:43;2;2;
70436;PMS5003;57877;39.750;-104.894;2023-06-22T05:22:09;2;1;
70436;PMS5003;57877;39.750;-104.894;2023-06-22T05:24:35;3;2;
70436;PMS5003;57877;39.750;-104.894;2023-06-22T05:27:01;3;3;
70436;PMS5003;57877;39.750;-104.894;2023-06-22T05:29:27;1;0;
70436;PMS5003;57877;39.750;-104.894;2023-06-22T05:31:53;1;0;
70436;PMS5003;57877;39.750;-104.894;2023-06-22T05:34:19;1;1;
70436;PMS5003;57877;39.750;-104.894;2023-06-22T05:36:44;2;2;
70436;PMS5003;57877;39.750;-104.894;2023-06-22T05:39:11;0;0;
70436;PMS5003;57877;39.750;-104.894;2023-06-22T05:41:36;1;1;
70436;PMS5003;57877;39.750;-104.894;2023-06-22T05:44:02;1;1;
70436;PMS5003;57877;39.750;-104.894;2023-06-22T05:46:28;1;1;
70436;PMS5003;57877;39.750;-104.894;2023-06-22T05:48:53;0;0;
70436;PMS5003;57877;39.750;-104.894;2023-06-22T05:51:18;0;0;
70436;PMS5003;57877;39.750;-104.894;2023-06-22T05:53:44;2;2;
70436;PMS5003;57877;39.750;-104.894;2023-06-22T05:56:09;0;0;
70436;PMS5003;57877;39.750;-104.894;2023-06-22T05:58:35;2;1;
70436;PMS5003;57877;39.750;-104.894;2023-06-22T06:01:01;1;0;
70436;PMS5003;57877;39.750;-104.894;2023-06-22T06:03:26;1;0;
70436;PMS5003;57877;39.750;-104.894;2023-06-22T06:05:52;0;0;
70436;PMS5003;57877;39.750;-104.894;2023-06-22T06:08:18;1;1;
70436;PMS5003;57877;39.750;-104.894;2023-06-22T06:10:44;0;0;
70436;PMS5003;57877;39.750;-104.894;2023-06-22T06:13:09;0;0;
70436;PMS5003;57877;39.750;-104.894;2023-06-22T06:15:35;0;0;
70436;PMS5003;57877;39.750;-104.894;2023-06-22T06:18:01;0;0;
70436;PMS5003;57877;39.750;-104.894;2023-06-22T06:20:27;0;0;
70436;PMS5003;57877;39.750;-104.894;2023-06-22T06:22:53;0;0;
70436;PMS5003;57877;39.750;-104.894;2023-06-22T06:25:19;1;1;
70436;PMS5003;57877;39.750;-104.894;2023-06-22T06:27:45;0;0;
70436;PMS5003;57877;39.750;-104.894;2023-06-22T06:30:11;1;1;
70436;PMS5003;57877;39.750;-104.894;2023-06-22T06:32:37;0;0;
70436;PMS5003;57877;39.750;-104.894;2023-06-22T06:35:03;0;0;
70436;PMS5003;57877;39.750;-104.894;2023-06-22T06:37:29;0;0;
70436;PMS5003;57877;39.750;-104.894;2023-06-22T06:39:55;0;0;
70436;PMS5003;57877;39.750;-104.894;2023-06-22T06:42:21;0;0;
70436;PMS5003;57877;39.750;-104.894;2023-06-22T06:44:47;0;0;
70436;PMS5003;57877;39.750;-104.894;2023-06-22T06:47:13;0;0;
70436;PMS5003;57877;39.750;-104.894;2023-06-22T06:49:39;0;0;
70436;PMS5003;57877;39.750;-104.894;2023-06-22T06:52:05;0;0;
70436;PMS5003;57877;39.750;-104.894;2023-06-22T06:54:31;0;0;
70436;PMS5003;57877;39.750;-104.894;2023-06-22T06:56:57;0;0;
70436;PMS5003;57877;39.750;-104.894;2023-06-22T06:59:23;0;0;
70436;PMS5003;57877;39.750;-104.894;2023-06-22T07:01:49;0;0;
70436;PMS5003;57877;39.750;-104.894;2023-06-22T07:04:15;0;0;
70436;PMS5003;57877;39.750;-104.894;2023-06-22T07:06:41;0;0;
70436;PMS5003;57877;39.750;-104.894;2023-06-22T07:09:07;0;0;
70436;PMS5003;57877;39.750;-104.894;2023-06-22T07:11:32;0;0;
70436;PMS5003;57877;39.750;-104.894;2023-06-22T07:13:57;0;0;
70436;PMS5003;57877;39.750;-104.894;2023-06-22T07:16:22;0;0;
70436;PMS5003;57877;39.750;-104.894;2023-06-22T07:18:47;0;0;
70436;PMS5003;57877;39.750;-104.894;2023-06-22T07:21:12;0;0;
70436;PMS5003;57877;39.750;-104.894;2023-06-22T07:23:37;0;0;
70436;PMS5003;57877;39.750;-104.894;2023-06-22T07:26:02;0;0;
70436;PMS5003;57877;39.750;-104.894;2023-06-22T07:28:27;0;0;
70436;PMS5003;57877;39.750;-104.894;2023-06-22T07:30:52;0;0;
70436;PMS5003;57877;39.750;-104.894;2023-06-22T07:33:17;0;0;
70436;PMS5003;57877;39.750;-104.894;2023-06-22T07:35:43;0;0;
70436;PMS5003;57877;39.750;-104.894;2023-06-22T07:38:09;0;0;
70436;PMS5003;57877;39.750;-104.894;2023-06-22T07:40:35;0;0;
70436;PMS5003;57877;39.750;-104.894;2023-06-22T07:43:00;0;0;
70436;PMS5003;57877;39.750;-104.894;2023-06-22T07:45:25;0;0;
70436;PMS5003;57877;39.750;-104.894;2023-06-22T07:47:50;0;0;
70436;PMS5003;57877;39.750;-104.894;2023-06-22T07:50:15;0;0;
70436;PMS5003;57877;39.750;-104.894;2023-06-22T07:52:40;0;0;
70436;PMS5003;57877;39.750;-104.894;2023-06-22T07:55:06;0;0;
70436;PMS5003;57877;39.750;-104.894;2023-06-22T07:57:30;0;0;
70436;PMS5003;57877;39.750;-104.894;2023-06-22T07:59:55;0;0;
70436;PMS5003;57877;39.750;-104.894;2023-06-22T08:02:21;0;0;
70436;PMS5003;57877;39.750;-104.894;2023-06-22T08:04:46;0;0;
70436;PMS5003;57877;39.750;-104.894;2023-06-22T08:07:12;0;0;
70436;PMS5003;57877;39.750;-104.894;2023-06-22T08:09:38;0;0;
70436;PMS5003;57877;39.750;-104.894;2023-06-22T08:12:05;0;0;
70436;PMS5003;57877;39.750;-104.894;2023-06-22T08:14:30;0;0;
70436;PMS5003;57877;39.750;-104.894;2023-06-22T08:16:56;0;0;
70436;PMS5003;57877;39.750;-104.894;2023-06-22T08:19:21;0;0;
70436;PMS5003;57877;39.750;-104.894;2023-06-22T08:21:46;0;0;
70436;PMS5003;57877;39.750;-104.894;2023-06-22T08:24:11;0;0;
70436;PMS5003;57877;39.750;-104.894;2023-06-22T08:26:37;1;0;
70436;PMS5003;57877;39.750;-104.894;2023-06-22T08:29:02;0;0;
70436;PMS5003;57877;39.750;-104.894;2023-06-22T08:31:26;0;0;
70436;PMS5003;57877;39.750;-104.894;2023-06-22T08:33:52;0;0;
70436;PMS5003;57877;39.750;-104.894;2023-06-22T08:36:17;2;2;
70436;PMS5003;57877;39.750;-104.894;2023-06-22T08:38:42;3;3;
70436;PMS5003;57877;39.750;-104.894;2023-06-22T08:41:07;0;0;
70436;PMS5003;57877;39.750;-104.894;2023-06-22T08:43:32;0;0;
70436;PMS5003;57877;39.750;-104.894;2023-06-22T08:45:57;0;0;
70436;PMS5003;57877;39.750;-104.894;2023-06-22T08:48:23;0;0;
70436;PMS5003;57877;39.750;-104.894;2023-06-22T08:50:48;0;0;
70436;PMS5003;57877;39.750;-104.894;2023-06-22T08:53:13;1;0;
70436;PMS5003;57877;39.750;-104.894;2023-06-22T08:55:39;0;0;
70436;PMS5003;57877;39.750;-104.894;2023-06-22T08:58:04;0;0;
70436;PMS5003;57877;39.750;-104.894;2023-06-22T09:00:29;0;0;
70436;PMS5003;57877;39.750;-104.894;2023-06-22T09:02:55;1;1;
70436;PMS5003;57877;39.750;-104.894;2023-06-22T09:05:20;0;0;
70436;PMS5003;57877;39.750;-104.894;2023-06-22T09:07:45;1;1;
70436;PMS5003;57877;39.750;-104.894;2023-06-22T09:10:10;0;0;
70436;PMS5003;57877;39.750;-104.894;2023-06-22T09:12:35;0;0;
70436;PMS5003;57877;39.750;-104.894;2023-06-22T09:15:01;0;0;
70436;PMS5003;57877;39.750;-104.894;2023-06-22T09:17:27;0;0;
70436;PMS5003;57877;39.750;-104.894;2023-06-22T09:19:53;0;0;
70436;PMS5003;57877;39.750;-104.894;2023-06-22T09:22:19;0;0;
70436;PMS5003;57877;39.750;-104.894;2023-06-22T09:24:44;0;0;
70436;PMS5003;57877;39.750;-104.894;2023-06-22T09:27:09;1;1;
70436;PMS5003;57877;39.750;-104.894;2023-06-22T09:29:34;0;0;
70436;PMS5003;57877;39.750;-104.894;2023-06-22T09:31:59;0;0;
70436;PMS5003;57877;39.750;-104.894;2023-06-22T09:34:24;0;0;
70436;PMS5003;57877;39.750;-104.894;2023-06-22T09:36:50;0;0;
70436;PMS5003;57877;39.750;-104.894;2023-06-22T09:39:16;0;0;
70436;PMS5003;57877;39.750;-104.894;2023-06-22T09:41:41;1;0;
70436;PMS5003;57877;39.750;-104.894;2023-06-22T09:44:07;0;0;
70436;PMS5003;57877;39.750;-104.894;2023-06-22T09:46:33;0;0;
70436;PMS5003;57877;39.750;-104.894;2023-06-22T09:48:58;0;0;
70436;PMS5003;57877;39.750;-104.894;2023-06-22T09:51:23;0;0;
70436;PMS5003;57877;39.750;-104.894;2023-06-22T09:53:48;0;0;
70436;PMS5003;57877;39.750;-104.894;2023-06-22T09:56:15;0;0;
70436;PMS5003;57877;39.750;-104.894;2023-06-22T09:58:41;0;0;
70436;PMS5003;57877;39.750;-104.894;2023-06-22T10:01:06;0;0;
70436;PMS5003;57877;39.750;-104.894;2023-06-22T10:03:31;0;0;
70436;PMS5003;57877;39.750;-104.894;2023-06-22T10:05:57;0;0;
70436;PMS5003;57877;39.750;-104.894;2023-06-22T10:08:22;0;0;
70436;PMS5003;57877;39.750;-104.894;2023-06-22T10:10:47;0;0;
70436;PMS5003;57877;39.750;-104.894;2023-06-22T10:13:12;0;0;
70436;PMS5003;57877;39.750;-104.894;2023-06-22T10:15:37;0;0;
70436;PMS5003;57877;39.750;-104.894;2023-06-22T10:18:03;0;0;
70436;PMS5003;57877;39.750;-104.894;2023-06-22T10:20:29;0;0;
70436;PMS5003;57877;39.750;-104.894;2023-06-22T10:22:54;0;0;
70436;PMS5003;57877;39.750;-104.894;2023-06-22T10:25:19;0;0;
70436;PMS5003;57877;39.750;-104.894;2023-06-22T10:27:44;0;0;
70436;PMS5003;57877;39.750;-104.894;2023-06-22T10:30:10;0;0;
70436;PMS5003;57877;39.750;-104.894;2023-06-22T10:32:34;0;0;
70436;PMS5003;57877;39.750;-104.894;2023-06-22T10:34:59;0;0;
70436;PMS5003;57877;39.750;-104.894;2023-06-22T10:37:24;0;0;
70436;PMS5003;57877;39.750;-104.894;2023-06-22T10:39:49;0;0;
70436;PMS5003;57877;39.750;-104.894;2023-06-22T10:42:14;0;0;
70436;PMS5003;57877;39.750;-104.894;2023-06-22T10:44:39;0;0;
70436;PMS5003;57877;39.750;-104.894;2023-06-22T10:47:04;0;0;
70436;PMS5003;57877;39.750;-104.894;2023-06-22T10:49:29;0;0;
70436;PMS5003;57877;39.750;-104.894;2023-06-22T10:51:54;0;0;
70436;PMS5003;57877;39.750;-104.894;2023-06-22T10:54:19;0;0;
70436;PMS5003;57877;39.750;-104.894;2023-06-22T10:56:44;0;0;
70436;PMS5003;57877;39.750;-104.894;2023-06-22T10:59:09;0;0;
70436;PMS5003;57877;39.750;-104.894;2023-06-22T11:01:35;0;0;
70436;PMS5003;57877;39.750;-104.894;2023-06-22T11:04:00;0;0;
70436;PMS5003;57877;39.750;-104.894;2023-06-22T11:06:26;0;0;
70436;PMS5003;57877;39.750;-104.894;2023-06-22T11:08:51;0;0;
70436;PMS5003;57877;39.750;-104.894;2023-06-22T11:11:16;0;0;
70436;PMS5003;57877;39.750;-104.894;2023-06-22T11:13:41;0;0;
70436;PMS5003;57877;39.750;-104.894;2023-06-22T11:16:06;0;0;
70436;PMS5003;57877;39.750;-104.894;2023-06-22T11:18:31;0;0;
70436;PMS5003;57877;39.750;-104.894;2023-06-22T11:20:57;0;0;
70436;PMS5003;57877;39.750;-104.894;2023-06-22T11:23:23;0;0;
70436;PMS5003;57877;39.750;-104.894;2023-06-22T11:25:48;0;0;
70436;PMS5003;57877;39.750;-104.894;2023-06-22T11:28:13;0;0;
70436;PMS5003;57877;39.750;-104.894;2023-06-22T11:30:38;0;0;
70436;PMS5003;57877;39.750;-104.894;2023-06-22T11:33:03;0;0;
70436;PMS5003;57877;39.750;-104.894;2023-06-22T11:35:28;0;0;
70436;PMS5003;57877;39.750;-104.894;2023-06-22T11:37:53;0;0;
70436;PMS5003;57877;39.750;-104.894;2023-06-22T11:40:18;0;0;
70436;PMS5003;57877;39.750;-104.894;2023-06-22T11:42:43;0;0;
70436;PMS5003;57877;39.750;-104.894;2023-06-22T11:45:09;0;0;
70436;PMS5003;57877;39.750;-104.894;2023-06-22T11:47:35;0;0;
70436;PMS5003;57877;39.750;-104.894;2023-06-22T11:50:00;0;0;
70436;PMS5003;57877;39.750;-104.894;2023-06-22T11:52:26;0;0;
70436;PMS5003;57877;39.750;-104.894;2023-06-22T11:54:50;0;0;
70436;PMS5003;57877;39.750;-104.894;2023-06-22T11:57:16;0;0;
70436;PMS5003;57877;39.750;-104.894;2023-06-22T11:59:41;0;0;
70436;PMS5003;57877;39.750;-104.894;2023-06-22T12:02:08;0;0;
70436;PMS5003;57877;39.750;-104.894;2023-06-22T12:04:34;0;0;
70436;PMS5003;57877;39.750;-104.894;2023-06-22T12:06:59;0;0;
70436;PMS5003;57877;39.750;-104.894;2023-06-22T12:09:25;0;0;
70436;PMS5003;57877;39.750;-104.894;2023-06-22T12:11:51;0;0;
70436;PMS5003;57877;39.750;-104.894;2023-06-22T12:14:18;0;0;
70436;PMS5003;57877;39.750;-104.894;2023-06-22T12:16:43;0;0;
70436;PMS5003;57877;39.750;-104.894;2023-06-22T12:19:10;0;0;
70436;PMS5003;57877;39.750;-104.894;2023-06-22T12:21:36;0;0;
70436;PMS5003;57877;39.750;-104.894;2023-06-22T12:24:01;0;0;
70436;PMS5003;57877;39.750;-104.894;2023-06-22T12:26:27;0;0;
70436;PMS5003;57877;39.750;-104.894;2023-06-22T12:28:53;0;0;
70436;PMS5003;57877;39.750;-104.894;2023-06-22T12:31:18;0;0;
70436;PMS5003;57877;39.750;-104.894;2023-06-22T12:33:43;0;0;
70436;PMS5003;57877;39.750;-104.894;2023-06-22T12:36:08;0;0;
70436;PMS5003;57877;39.750;-104.894;2023-06-22T12:38:35;0;0;
70436;PMS5003;57877;39.750;-104.894;2023-06-22T12:41:00;0;0;
70436;PMS5003;57877;39.750;-104.894;2023-06-22T12:43:27;0;0;
70436;PMS5003;57877;39.750;-104.894;2023-06-22T12:45:52;0;0;
70436;PMS5003;57877;39.750;-104.894;2023-06-22T12:48:18;0;0;
70436;PMS5003;57877;39.750;-104.894;2023-06-22T12:50:43;0;0;
70436;PMS5003;57877;39.750;-104.894;2023-06-22T12:53:08;0;0;
70436;PMS5003;57877;39.750;-104.894;2023-06-22T12:55:34;0;0;
70436;PMS5003;57877;39.750;-104.894;2023-06-22T12:57:59;0;0;
70436;PMS5003;57877;39.750;-104.894;2023-06-22T13:00:23;0;0;
70436;PMS5003;57877;39.750;-104.894;2023-06-22T13:02:48;0;0;
70436;PMS5003;57877;39.750;-104.894;2023-06-22T13:05:13;0;0;
70436;PMS5003;57877;39.750;-104.894;2023-06-22T13:07:39;0;0;
70436;PMS5003;57877;39.750;-104.894;2023-06-22T13:10:06;0;0;
70436;PMS5003;57877;39.750;-104.894;2023-06-22T13:12:31;0;0;
70436;PMS5003;57877;39.750;-104.894;2023-06-22T13:14:57;0;0;
70436;PMS5003;57877;39.750;-104.894;2023-06-22T13:17:23;0;0;
70436;PMS5003;57877;39.750;-104.894;2023-06-22T13:19:49;0;0;
70436;PMS5003;57877;39.750;-104.894;2023-06-22T13:24:41;0;0;
70436;PMS5003;57877;39.750;-104.894;2023-06-22T13:27:07;0;0;
70436;PMS5003;57877;39.750;-104.894;2023-06-22T13:29:33;0;0;
70436;PMS5003;57877;39.750;-104.894;2023-06-22T13:31:59;0;0;
70436;PMS5003;57877;39.750;-104.894;2023-06-22T13:34:25;0;0;
70436;PMS5003;57877;39.750;-104.894;2023-06-22T13:36:51;0;0;
70436;PMS5003;57877;39.750;-104.894;2023-06-22T13:39:17;0;0;
70436;PMS5003;57877;39.750;-104.894;2023-06-22T13:41:43;0;0;
70436;PMS5003;57877;39.750;-104.894;2023-06-22T13:44:09;0;0;
70436;PMS5003;57877;39.750;-104.894;2023-06-22T13:46:35;0;0;
70436;PMS5003;57877;39.750;-104.894;2023-06-22T13:49:01;0;0;
70436;PMS5003;57877;39.750;-104.894;2023-06-22T13:51:27;0;0;
70436;PMS5003;57877;39.750;-104.894;2023-06-22T13:53:53;0;0;
70436;PMS5003;57877;39.750;-104.894;2023-06-22T13:56:19;0;0;
70436;PMS5003;57877;39.750;-104.894;2023-06-22T13:58:45;0;0;
70436;PMS5003;57877;39.750;-104.894;2023-06-22T14:01:11;0;0;
70436;PMS5003;57877;39.750;-104.894;2023-06-22T14:03:37;0;0;
70436;PMS5003;57877;39.750;-104.894;2023-06-22T14:06:03;0;0;
70436;PMS5003;57877;39.750;-104.894;2023-06-22T14:08:29;0;0;
70436;PMS5003;57877;39.750;-104.894;2023-06-22T14:10:55;0;0;
70436;PMS5003;57877;39.750;-104.894;2023-06-22T14:13:21;0;0;
70436;PMS5003;57877;39.750;-104.894;2023-06-22T14:15:46;0;0;
70436;PMS5003;57877;39.750;-104.894;2023-06-22T14:18:11;0;0;
70436;PMS5003;57877;39.750;-104.894;2023-06-22T14:20:37;0;0;
70436;PMS5003;57877;39.750;-104.894;2023-06-22T14:23:02;0;0;
70436;PMS5003;57877;39.750;-104.894;2023-06-22T14:25:27;0;0;
70436;PMS5003;57877;39.750;-104.894;2023-06-22T14:27:52;0;0;
70436;PMS5003;57877;39.750;-104.894;2023-06-22T14:30:17;0;0;
70436;PMS5003;57877;39.750;-104.894;2023-06-22T14:32:43;0;0;
70436;PMS5003;57877;39.750;-104.894;2023-06-22T14:35:08;0;0;
70436;PMS5003;57877;39.750;-104.894;2023-06-22T14:37:34;0;0;
70436;PMS5003;57877;39.750;-104.894;2023-06-22T14:40:00;0;0;
70436;PMS5003;57877;39.750;-104.894;2023-06-22T14:42:26;0;0;
70436;PMS5003;57877;39.750;-104.894;2023-06-22T14:44:52;0;0;
70436;PMS5003;57877;39.750;-104.894;2023-06-22T14:47:17;0;0;
70436;PMS5003;57877;39.750;-104.894;2023-06-22T14:49:42;0;0;
70436;PMS5003;57877;39.750;-104.894;2023-06-22T14:52:08;0;0;
70436;PMS5003;57877;39.750;-104.894;2023-06-22T14:54:34;0;0;
70436;PMS5003;57877;39.750;-104.894;2023-06-22T14:56:59;0;0;
70436;PMS5003;57877;39.750;-104.894;2023-06-22T14:59:25;0;0;
70436;PMS5003;57877;39.750;-104.894;2023-06-22T15:01:51;0;0;
70436;PMS5003;57877;39.750;-104.894;2023-06-22T15:04:15;0;0;
70436;PMS5003;57877;39.750;-104.894;2023-06-22T15:06:40;0;0;
70436;PMS5003;57877;39.750;-104.894;2023-06-22T15:09:06;0;0;
70436;PMS5003;57877;39.750;-104.894;2023-06-22T15:11:32;0;0;
70436;PMS5003;57877;39.750;-104.894;2023-06-22T15:13:58;0;0;
70436;PMS5003;57877;39.750;-104.894;2023-06-22T15:16:22;0;0;
70436;PMS5003;57877;39.750;-104.894;2023-06-22T15:18:48;0;0;
70436;PMS5003;57877;39.750;-104.894;2023-06-22T15:21:14;0;0;
70436;PMS5003;57877;39.750;-104.894;2023-06-22T15:23:39;0;0;
70436;PMS5003;57877;39.750;-104.894;2023-06-22T15:26:05;0;0;
70436;PMS5003;57877;39.750;-104.894;2023-06-22T15:28:30;0;0;
70436;PMS5003;57877;39.750;-104.894;2023-06-22T15:30:56;0;0;
70436;PMS5003;57877;39.750;-104.894;2023-06-22T15:33:21;0;0;
70436;PMS5003;57877;39.750;-104.894;2023-06-22T15:35:46;0;0;
70436;PMS5003;57877;39.750;-104.894;2023-06-22T15:38:11;0;0;
70436;PMS5003;57877;39.750;-104.894;2023-06-22T15:40:36;0;0;
70436;PMS5003;57877;39.750;-104.894;2023-06-22T15:43:01;0;0;
70436;PMS5003;57877;39.750;-104.894;2023-06-22T15:45:26;0;0;
70436;PMS5003;57877;39.750;-104.894;2023-06-22T15:47:51;0;0;
70436;PMS5003;57877;39.750;-104.894;2023-06-22T15:50:16;0;0;